createdAt,value
2019-01-25T00:02:29.850Z,75.80
2019-01-25T00:05:00.276Z,76.10
2019-01-25T00:07:33.060Z,75.60
2019-01-25T00:10:04.713Z,75.90
2019-01-25T00:12:35.868Z,75.60
2019-01-25T00:15:07.055Z,75.70
2019-01-25T00:17:36.761Z,75.90
2019-01-25T00:20:08.334Z,75.40
2019-01-25T00:22:38.636Z,74.60
2019-01-25T00:25:08.543Z,73.90
2019-01-25T00:27:39.171Z,74.00
2019-01-25T00:30:12.449Z,74.20
2019-01-25T00:32:45.308Z,73.80
2019-01-25T00:35:21.355Z,73.70
2019-01-25T00:37:52.645Z,73.70
2019-01-25T00:40:24.580Z,73.60
2019-01-25T00:43:02.118Z,73.50
2019-01-25T00:45:34.117Z,73.50
2019-01-25T00:48:09.739Z,73.30
2019-01-25T00:50:42.236Z,73.00
2019-01-25T00:53:12.645Z,72.70
2019-01-25T00:55:48.357Z,72.70
2019-01-25T00:58:21.803Z,73.80
2019-01-25T01:00:51.005Z,74.70
2019-01-25T01:03:21.700Z,74.60
2019-01-25T01:05:51.375Z,74.60
2019-01-25T01:08:23.511Z,74.70
2019-01-25T01:10:55.182Z,75.30
2019-01-25T01:13:26.778Z,75.70
2019-01-25T01:15:56.462Z,75.80
2019-01-25T01:18:26.790Z,75.70
2019-01-25T01:20:56.105Z,75.90
2019-01-25T01:23:26.068Z,75.90
2019-01-25T01:25:57.920Z,76.40
2019-01-25T01:28:28.532Z,76.70
2019-01-25T01:31:00.157Z,76.80
2019-01-25T01:33:30.384Z,77.00
2019-01-25T01:36:00.628Z,76.20
2019-01-25T01:38:31.429Z,76.00
2019-01-25T01:41:03.170Z,76.20
2019-01-25T01:43:32.475Z,75.60
2019-01-25T01:46:04.480Z,75.70
2019-01-25T01:48:34.447Z,75.50
2019-01-25T01:51:04.702Z,75.50
2019-01-25T01:53:35.878Z,76.30
2019-01-25T01:56:08.250Z,75.10
2019-01-25T01:58:38.030Z,74.10
2019-01-25T02:01:08.951Z,73.80
2019-01-25T02:03:39.372Z,74.40
2019-01-25T02:06:11.082Z,74.40
2019-01-25T02:08:40.722Z,74.50
2019-01-25T02:11:11.588Z,74.30
2019-01-25T02:13:41.981Z,74.50
2019-01-25T02:16:11.758Z,74.60
2019-01-25T02:18:41.350Z,75.10
2019-01-25T02:21:14.034Z,75.90
2019-01-25T02:23:45.347Z,76.00
2019-01-25T02:26:15.125Z,76.20
2019-01-25T02:28:45.130Z,76.30
2019-01-25T02:31:15.373Z,76.60
2019-01-25T02:33:44.780Z,76.40
2019-01-25T02:36:14.973Z,76.90
2019-01-25T02:38:46.331Z,76.80
2019-01-25T02:41:16.433Z,77.20
2019-01-25T02:43:46.858Z,77.50
2019-01-25T02:46:16.527Z,77.60
2019-01-25T02:48:45.737Z,77.90
2019-01-25T02:51:15.595Z,77.90
2019-01-25T02:53:44.995Z,77.40
2019-01-25T02:56:15.840Z,77.20
2019-01-25T02:58:44.608Z,77.10
2019-01-25T03:01:16.508Z,77.40
2019-01-25T03:03:46.978Z,77.70
2019-01-25T03:06:18.732Z,77.70
2019-01-25T03:08:50.713Z,77.60
2019-01-25T03:11:21.005Z,77.80
2019-01-25T03:13:50.230Z,77.80
2019-01-25T03:16:20.186Z,77.70
2019-01-25T03:18:50.078Z,77.80
2019-01-25T03:21:21.731Z,77.60
2019-01-25T03:23:52.307Z,77.20
2019-01-25T03:26:23.245Z,77.30
2019-01-25T03:28:54.259Z,77.30
2019-01-25T03:31:24.337Z,77.80
2019-01-25T03:33:54.648Z,78.10
2019-01-25T03:36:25.398Z,79.30
2019-01-25T03:38:55.773Z,78.20
2019-01-25T03:41:25.670Z,77.90
2019-01-25T03:43:55.297Z,77.40
2019-01-25T03:46:26.546Z,77.50
2019-01-25T03:48:58.740Z,78.00
2019-01-25T03:51:28.437Z,78.20
2019-01-25T03:53:57.615Z,77.80
2019-01-25T03:56:28.656Z,77.70
2019-01-25T03:59:01.097Z,77.60
2019-01-25T04:01:31.243Z,77.80
2019-01-25T04:04:01.806Z,77.50
2019-01-25T04:06:31.736Z,77.30
2019-01-25T04:09:04.388Z,77.30
2019-01-25T04:11:35.053Z,77.10
2019-01-25T04:14:08.550Z,76.80
2019-01-25T04:16:37.850Z,77.00
2019-01-25T04:19:08.550Z,76.80
2019-01-25T04:21:40.343Z,77.30
2019-01-25T04:24:12.495Z,77.50
2019-01-25T04:26:41.598Z,78.10
2019-01-25T04:29:11.033Z,77.60
2019-01-25T04:31:41.582Z,77.80
2019-01-25T04:34:12.081Z,77.70
2019-01-25T04:36:42.595Z,77.40
2019-01-25T04:39:11.701Z,77.00
2019-01-25T04:41:41.356Z,76.80
2019-01-25T04:44:11.533Z,76.80
2019-01-25T04:46:41.321Z,77.00
2019-01-25T04:49:12.380Z,78.10
2019-01-25T04:51:42.334Z,77.60
2019-01-25T04:54:13.526Z,77.70
2019-01-25T04:56:45.611Z,77.20
2019-01-25T04:59:16.622Z,76.70
2019-01-25T05:01:47.003Z,76.60
2019-01-25T05:04:17.031Z,76.40
2019-01-25T05:06:47.430Z,75.80
2019-01-25T05:09:17.835Z,76.00
2019-01-25T05:11:48.203Z,75.40
2019-01-25T05:14:19.198Z,74.00
2019-01-25T05:16:48.758Z,73.60
2019-01-25T05:19:18.879Z,73.60
2019-01-25T05:21:49.146Z,73.40
2019-01-25T05:24:21.224Z,72.70
2019-01-25T05:26:57.642Z,72.40
2019-01-25T05:29:55.011Z,72.40
2019-01-25T05:32:25.723Z,72.20
2019-01-25T05:34:57.572Z,72.20
2019-01-25T05:37:28.813Z,72.10
2019-01-25T05:40:00.432Z,72.20
2019-01-25T05:42:31.739Z,71.50
2019-01-25T05:45:10.552Z,71.00
2019-01-25T05:47:43.018Z,71.20
2019-01-25T05:50:13.588Z,71.00
2019-01-25T05:52:45.370Z,70.90
2019-01-25T05:55:20.417Z,70.90
2019-01-25T05:57:55.910Z,70.40
2019-01-25T06:00:31.314Z,70.70
2019-01-25T06:03:11.667Z,71.00
2019-01-25T06:05:42.906Z,71.60
2019-01-25T06:08:31.041Z,71.70
2019-01-25T06:11:06.955Z,71.10
2019-01-25T06:13:38.851Z,71.20
2019-01-25T06:16:09.470Z,71.30
2019-01-25T06:18:39.489Z,71.20
2019-01-25T06:21:10.247Z,71.10
2019-01-25T06:23:40.667Z,71.40
2019-01-25T06:26:13.185Z,71.30
2019-01-25T06:28:46.040Z,71.10
2019-01-25T06:31:19.848Z,71.40
2019-01-25T06:33:49.601Z,71.30
2019-01-25T06:36:19.899Z,71.30
2019-01-25T06:38:50.651Z,71.40
2019-01-25T06:41:20.562Z,71.20
2019-01-25T06:43:49.327Z,71.60
2019-01-25T06:46:20.907Z,71.60
2019-01-25T06:48:52.604Z,72.10
2019-01-25T06:51:23.420Z,72.10
2019-01-25T06:53:52.590Z,72.30
2019-01-25T06:56:22.160Z,72.50
2019-01-25T06:59:08.753Z,72.10
2019-01-25T07:01:46.462Z,71.80
2019-01-25T07:04:16.378Z,71.90
2019-01-25T07:06:47.789Z,71.60
2019-01-25T07:09:19.335Z,71.10
2019-01-25T07:12:36.397Z,70.70
2019-01-25T07:16:03.308Z,70.20
2019-01-25T07:19:13.648Z,69.40
2019-01-25T07:26:14.253Z,68.20
2019-01-25T07:28:48.022Z,67.10
2019-01-25T07:31:18.817Z,66.50
2019-01-25T07:33:48.149Z,66.00
2019-01-25T07:36:18.682Z,65.00
2019-01-25T07:38:48.727Z,64.20
2019-01-25T07:41:18.118Z,63.20
2019-01-25T07:43:48.370Z,63.60
2019-01-25T07:46:17.231Z,63.70
2019-01-25T07:48:47.676Z,61.50
2019-01-25T07:51:17.032Z,61.30
2019-01-25T07:53:46.427Z,62.00
2019-01-25T07:56:18.358Z,61.80
2019-01-25T07:58:48.474Z,62.00
2019-01-25T08:01:18.268Z,60.30
2019-01-25T08:03:47.124Z,58.50
2019-01-25T08:06:17.556Z,58.30
2019-01-25T08:08:46.850Z,57.00
2019-01-25T08:11:16.072Z,57.30
2019-01-25T08:13:45.892Z,57.60
2019-01-25T08:16:17.091Z,57.40
2019-01-25T08:18:46.258Z,55.10
2019-01-25T08:21:15.596Z,54.00
2019-01-25T08:23:46.837Z,54.40
2019-01-25T08:26:15.794Z,54.80
2019-01-25T08:28:46.373Z,54.20
2019-01-25T08:31:16.892Z,53.70
2019-01-25T08:33:46.241Z,52.90
2019-01-25T08:36:16.461Z,53.00
2019-01-25T08:38:46.826Z,52.80
2019-01-25T08:41:17.222Z,51.70
2019-01-25T08:43:48.179Z,51.20
2019-01-25T08:46:17.909Z,51.10
2019-01-25T08:48:48.210Z,50.80
2019-01-25T08:51:19.544Z,48.70
2019-01-25T08:53:51.020Z,47.60
2019-01-25T08:56:22.520Z,45.40
2019-01-25T08:58:52.890Z,46.20
2019-01-25T09:01:23.361Z,47.00
2019-01-25T09:03:53.195Z,47.20
2019-01-25T09:06:23.742Z,46.10
2019-01-25T09:08:53.163Z,45.60
2019-01-25T09:11:22.730Z,46.00
2019-01-25T09:13:52.267Z,45.90
2019-01-25T09:16:24.489Z,44.70
2019-01-25T09:18:53.958Z,44.40
2019-01-25T09:21:22.813Z,46.60
2019-01-25T09:23:52.088Z,48.60
2019-01-25T09:26:21.492Z,48.00
2019-01-25T09:28:50.773Z,47.90
2019-01-25T09:31:19.763Z,50.70
2019-01-25T09:33:49.037Z,50.00
2019-01-25T09:36:18.383Z,50.70
2019-01-25T09:38:49.849Z,51.60
2019-01-25T09:41:20.387Z,50.30
2019-01-25T09:43:50.343Z,51.60
2019-01-25T09:46:21.165Z,51.70
2019-01-25T09:48:51.630Z,52.20
2019-01-25T09:51:20.773Z,52.60
2019-01-25T09:53:50.588Z,50.50
2019-01-25T09:56:21.381Z,50.00
2019-01-25T09:58:51.881Z,48.90
2019-01-25T10:01:21.568Z,49.80
2019-01-25T10:03:51.705Z,49.60
2019-01-25T10:06:22.141Z,49.90
2019-01-25T10:08:52.612Z,50.70
2019-01-25T10:11:21.690Z,48.50
2019-01-25T10:13:50.956Z,47.90
2019-01-25T10:16:20.345Z,47.40
2019-01-25T10:18:51.153Z,48.00
2019-01-25T10:21:20.609Z,48.70
2019-01-25T10:23:49.848Z,50.50
2019-01-25T10:26:20.232Z,50.70
2019-01-25T10:28:50.751Z,50.90
2019-01-25T10:31:20.261Z,49.00
2019-01-25T10:33:51.380Z,49.30
2019-01-25T10:36:20.871Z,49.80
2019-01-25T10:38:49.631Z,46.50
2019-01-25T10:41:19.697Z,46.70
2019-01-25T10:43:50.637Z,44.70
2019-01-25T10:46:21.535Z,43.70
2019-01-25T10:48:51.418Z,43.60
2019-01-25T10:51:20.939Z,43.70
2019-01-25T10:53:50.017Z,42.40
2019-01-25T10:56:20.988Z,41.10
2019-01-25T10:58:51.754Z,42.30
2019-01-25T11:01:23.633Z,41.60
2019-01-25T11:03:53.322Z,39.80
2019-01-25T11:06:24.763Z,39.90
2019-01-25T11:08:54.406Z,40.60
2019-01-25T11:11:24.080Z,38.90
2019-01-25T11:13:54.068Z,39.20
2019-01-25T11:16:23.691Z,38.70
2019-01-25T11:18:52.998Z,37.00
2019-01-25T11:21:25.380Z,36.70
2019-01-25T11:23:54.605Z,37.00
2019-01-25T11:26:24.020Z,38.00
2019-01-25T11:28:52.607Z,36.70
2019-01-25T11:31:22.496Z,36.70
2019-01-25T11:33:52.823Z,37.80
2019-01-25T11:36:24.670Z,38.60
2019-01-25T11:38:54.265Z,37.20
2019-01-25T11:41:23.564Z,37.50
2019-01-25T11:43:53.854Z,37.90
2019-01-25T11:46:23.063Z,37.30
2019-01-25T11:48:54.533Z,36.60
2019-01-25T11:51:24.479Z,37.10
2019-01-25T11:53:53.014Z,36.60
2019-01-25T11:56:22.810Z,36.30
2019-01-25T11:58:52.186Z,36.30
2019-01-25T12:01:21.836Z,36.20
2019-01-25T12:03:51.878Z,36.50
2019-01-25T12:06:24.113Z,35.60
2019-01-25T12:08:53.782Z,36.10
2019-01-25T12:11:23.823Z,35.70
2019-01-25T12:13:53.503Z,36.50
2019-01-25T12:16:22.689Z,35.40
2019-01-25T12:18:52.560Z,36.20
2019-01-25T12:21:24.728Z,36.70
2019-01-25T12:23:56.043Z,36.20
2019-01-25T12:26:26.570Z,34.90
2019-01-25T12:28:56.536Z,35.10
2019-01-25T12:31:25.786Z,33.90
2019-01-25T12:33:56.185Z,34.60
2019-01-25T12:36:25.500Z,34.50
2019-01-25T12:38:54.753Z,35.00
2019-01-25T12:41:25.718Z,35.70
2019-01-25T12:43:57.311Z,37.30
2019-01-25T12:46:26.448Z,38.60
2019-01-25T12:48:55.910Z,39.00
2019-01-25T12:51:51.582Z,39.70
2019-01-25T12:54:22.093Z,39.30
2019-01-25T12:56:52.870Z,39.90
2019-01-25T12:59:23.238Z,39.40
2019-01-25T13:01:53.192Z,40.90
2019-01-25T13:04:24.101Z,41.30
2019-01-25T13:06:53.766Z,41.20
2019-01-25T13:09:23.103Z,43.30
2019-01-25T13:11:53.687Z,44.60
2019-01-25T13:14:23.382Z,43.20
2019-01-25T13:16:56.703Z,43.20
2019-01-25T13:19:26.482Z,43.20
2019-01-25T13:21:56.533Z,41.90
2019-01-25T13:24:27.745Z,42.20
2019-01-25T13:26:57.447Z,40.30
2019-01-25T13:29:29.781Z,40.90
2019-01-25T13:32:02.061Z,39.70
2019-01-25T13:34:32.828Z,39.70
2019-01-25T13:37:02.940Z,39.30
2019-01-25T13:39:32.838Z,38.00
2019-01-25T13:42:02.270Z,38.00
2019-01-25T13:44:31.936Z,37.40
2019-01-25T13:47:01.666Z,36.90
2019-01-25T13:49:30.813Z,35.40
2019-01-25T13:52:02.555Z,34.10
2019-01-25T13:54:35.220Z,34.70
2019-01-25T13:57:21.525Z,33.70
2019-01-25T13:59:51.683Z,33.40
2019-01-25T14:02:22.474Z,34.30
2019-01-25T14:04:52.961Z,34.20
2019-01-25T14:07:22.350Z,35.10
2019-01-25T14:09:52.078Z,36.00
2019-01-25T14:12:23.390Z,36.80
2019-01-25T14:14:55.007Z,37.30
2019-01-25T14:17:25.011Z,36.50
2019-01-25T14:19:54.908Z,36.70
2019-01-25T14:22:24.563Z,36.30
2019-01-25T14:24:56.118Z,36.90
2019-01-25T14:27:26.469Z,36.10
2019-01-25T14:29:55.821Z,35.30
2019-01-25T14:32:27.369Z,35.80
2019-01-25T14:34:56.755Z,37.00
2019-01-25T14:37:27.223Z,38.30
2019-01-25T14:39:58.774Z,38.90
2019-01-25T14:42:29.028Z,39.40
2019-01-25T14:44:58.622Z,39.60
2019-01-25T14:47:28.836Z,40.20
2019-01-25T14:49:57.746Z,40.70
2019-01-25T14:52:28.911Z,41.40
2019-01-25T14:55:00.281Z,41.50
2019-01-25T14:57:29.135Z,42.70
2019-01-25T14:59:59.983Z,42.80
2019-01-25T15:02:29.281Z,43.30
2019-01-25T15:05:00.884Z,44.00
2019-01-25T15:07:32.048Z,43.40
2019-01-25T15:10:02.419Z,42.50
2019-01-25T15:12:33.349Z,42.80
2019-01-25T15:15:04.234Z,41.00
2019-01-25T15:17:36.308Z,40.70
2019-01-25T15:20:10.466Z,40.60
2019-01-25T15:22:39.370Z,40.90
2019-01-25T15:25:09.443Z,40.70
2019-01-25T15:27:39.996Z,41.70
2019-01-25T15:30:16.866Z,40.30
2019-01-25T15:32:47.738Z,41.80
2019-01-25T15:35:19.373Z,41.30
2019-01-25T15:37:48.414Z,41.60
2019-01-25T15:40:18.907Z,41.30
2019-01-25T15:42:47.756Z,41.60
2019-01-25T15:45:20.650Z,41.00
2019-01-25T15:47:50.841Z,42.10
2019-01-25T15:50:26.218Z,41.50
2019-01-25T15:52:56.750Z,42.20
2019-01-25T15:55:27.356Z,41.40
2019-01-25T15:57:58.385Z,41.60
2019-01-25T16:00:31.172Z,41.30
2019-01-25T16:03:00.935Z,42.40
2019-01-25T16:05:32.310Z,42.80
2019-01-25T16:08:01.862Z,42.90
2019-01-25T16:10:32.097Z,42.70
2019-01-25T16:13:04.224Z,42.70
2019-01-25T16:15:34.727Z,42.50
2019-01-25T16:18:04.570Z,42.90
2019-01-25T16:20:34.521Z,43.20
2019-01-25T16:23:04.870Z,42.50
2019-01-25T16:25:37.006Z,43.10
2019-01-25T16:28:09.212Z,42.80
2019-01-25T16:30:39.883Z,42.80
2019-01-25T16:33:11.233Z,42.10
2019-01-25T16:35:41.006Z,43.20
2019-01-25T16:38:11.923Z,42.40
2019-01-25T16:40:43.967Z,41.10
2019-01-25T16:43:14.435Z,40.00
2019-01-25T16:45:45.990Z,40.10
2019-01-25T16:48:15.826Z,40.90
2019-01-25T16:50:44.868Z,40.50
2019-01-25T16:53:15.962Z,40.10
2019-01-25T16:55:45.364Z,40.70
2019-01-25T16:58:15.567Z,39.60
2019-01-25T17:00:51.538Z,40.00
2019-01-25T17:03:23.377Z,40.50
2019-01-25T17:05:53.645Z,39.40
2019-01-25T17:08:23.230Z,40.50
2019-01-25T17:10:54.835Z,40.60
2019-01-25T17:13:25.684Z,40.40
2019-01-25T17:15:55.866Z,40.30
2019-01-25T17:18:26.581Z,40.80
2019-01-25T17:20:57.214Z,41.20
2019-01-25T17:23:27.325Z,41.10
2019-01-25T17:25:58.651Z,41.80
2019-01-25T17:28:29.032Z,41.10
2019-01-25T17:30:59.251Z,40.90
2019-01-25T17:33:31.916Z,41.10
2019-01-25T17:36:02.028Z,41.20
2019-01-25T17:38:32.060Z,40.70
2019-01-25T17:41:01.453Z,40.00
2019-01-25T17:43:31.393Z,39.20
2019-01-25T17:46:01.977Z,39.00
2019-01-25T17:48:34.828Z,38.80
2019-01-25T17:51:04.937Z,38.50
2019-01-25T17:53:33.581Z,39.80
2019-01-25T17:56:03.890Z,40.00
2019-01-25T17:58:34.332Z,39.50
2019-01-25T18:01:05.166Z,39.90
2019-01-25T18:03:36.654Z,40.00
2019-01-25T18:06:07.136Z,40.50
2019-01-25T18:08:37.240Z,40.50
2019-01-25T18:11:07.887Z,41.00
2019-01-25T18:13:38.510Z,40.90
2019-01-25T18:16:08.384Z,41.10
2019-01-25T18:18:39.932Z,42.80
2019-01-25T18:21:10.775Z,43.50
2019-01-25T18:23:41.552Z,43.60
2019-01-25T18:26:21.627Z,44.30
2019-01-25T18:29:09.880Z,45.70
2019-01-25T18:31:42.036Z,46.90
2019-01-25T18:34:11.795Z,48.00
2019-01-25T18:36:42.150Z,49.50
2019-01-25T18:39:12.410Z,51.00
2019-01-25T18:41:42.878Z,52.70
2019-01-25T18:44:12.338Z,54.40
2019-01-25T18:46:43.761Z,55.30
2019-01-25T18:49:16.544Z,55.60
2019-01-25T18:51:47.560Z,56.40
2019-01-25T18:54:18.179Z,56.20
2019-01-25T18:56:51.450Z,56.80
2019-01-25T18:59:21.121Z,56.50
2019-01-25T19:01:51.073Z,56.90
2019-01-25T19:04:21.660Z,57.50
2019-01-25T19:06:52.383Z,57.70
2019-01-25T19:09:25.920Z,57.70
2019-01-25T19:11:57.692Z,57.30
2019-01-25T19:14:26.645Z,57.40
2019-01-25T19:16:56.123Z,57.20
2019-01-25T19:19:27.515Z,56.50
2019-01-25T19:21:59.083Z,56.30
2019-01-25T19:24:32.010Z,56.10
2019-01-25T19:27:00.693Z,56.00
2019-01-25T19:29:32.269Z,55.60
2019-01-25T19:32:01.254Z,54.80
2019-01-25T19:34:30.421Z,55.00
2019-01-25T19:37:00.921Z,56.40
2019-01-25T19:39:33.357Z,55.70
2019-01-25T19:42:04.254Z,55.90
2019-01-25T19:44:35.745Z,55.50
2019-01-25T19:47:06.269Z,56.20
2019-01-25T19:49:39.285Z,56.10
2019-01-25T19:52:10.989Z,56.50
2019-01-25T19:54:43.910Z,56.70
2019-01-25T19:57:14.097Z,57.30
2019-01-25T19:59:44.814Z,56.90
2019-01-25T20:02:15.746Z,56.90
2019-01-25T20:04:46.406Z,57.00
2019-01-25T20:07:17.270Z,57.10
2019-01-25T20:09:48.145Z,57.10
2019-01-25T20:12:20.470Z,57.60
2019-01-25T20:14:51.420Z,57.30
2019-01-25T20:17:22.386Z,58.00
2019-01-25T20:19:51.340Z,58.40
2019-01-25T20:22:22.241Z,58.40
2019-01-25T20:24:52.515Z,58.50
2019-01-25T20:27:22.505Z,58.50
2019-01-25T20:29:52.848Z,59.10
2019-01-25T20:32:24.191Z,59.00
2019-01-25T20:34:57.789Z,59.10
2019-01-25T20:37:28.943Z,59.10
2019-01-25T20:39:59.595Z,59.60
2019-01-25T20:42:30.002Z,59.50
2019-01-25T20:45:00.853Z,59.00
2019-01-25T20:47:33.334Z,60.10
2019-01-25T20:50:05.379Z,59.20
2019-01-25T20:52:35.725Z,59.20
2019-01-25T20:55:17.306Z,58.70
2019-01-25T20:57:49.283Z,58.50
2019-01-25T21:00:30.530Z,59.20
2019-01-25T21:03:00.991Z,59.60
2019-01-25T21:05:33.654Z,59.50
2019-01-25T21:08:06.324Z,59.20
2019-01-25T21:10:38.169Z,59.10
2019-01-25T21:13:11.075Z,59.70
2019-01-25T21:15:41.889Z,60.00
2019-01-25T21:18:11.627Z,59.50
2019-01-25T21:20:47.350Z,58.40
2019-01-25T21:23:18.353Z,58.80
2019-01-25T21:25:49.574Z,59.30
2019-01-25T21:28:21.251Z,59.20
2019-01-25T21:30:58.119Z,59.20
2019-01-25T21:33:27.973Z,59.40
2019-01-25T21:35:58.527Z,60.20
2019-01-25T21:38:28.111Z,60.30
2019-01-25T21:40:59.112Z,60.90
2019-01-25T21:43:29.489Z,60.40
2019-01-25T21:45:59.588Z,60.50
2019-01-25T21:48:34.329Z,61.00
2019-01-25T21:51:05.699Z,61.60
2019-01-25T21:53:36.204Z,61.70
2019-01-25T21:56:06.739Z,62.00
2019-01-25T21:58:38.355Z,61.20
2019-01-25T22:01:13.131Z,61.10
2019-01-25T22:03:43.267Z,61.30
2019-01-25T22:06:14.322Z,61.40
2019-01-25T22:08:48.037Z,62.00
2019-01-25T22:11:17.935Z,61.90
2019-01-25T22:13:52.756Z,61.90
2019-01-25T22:16:19.726Z,61.80
2019-01-25T22:18:49.142Z,61.70
2019-01-25T22:21:19.063Z,61.50
2019-01-25T22:23:50.156Z,61.10
2019-01-25T22:26:20.806Z,61.30
2019-01-25T22:28:52.083Z,61.90
2019-01-25T22:31:23.163Z,62.50
2019-01-25T22:33:52.508Z,62.80
2019-01-25T22:36:24.384Z,63.50
2019-01-25T22:38:54.749Z,64.00
2019-01-25T22:41:23.755Z,64.20
2019-01-25T22:43:53.974Z,64.50
2019-01-25T22:46:24.458Z,65.20
2019-01-25T22:48:54.633Z,66.20
2019-01-25T22:51:24.418Z,66.60
2019-01-25T22:53:54.358Z,68.00
2019-01-25T22:56:24.415Z,67.60
2019-01-25T22:58:55.012Z,68.20
2019-01-25T23:01:31.475Z,68.60
2019-01-25T23:04:34.857Z,69.00
2019-01-25T23:07:16.947Z,69.60
2019-01-25T23:09:51.441Z,70.80
2019-01-25T23:12:21.044Z,70.80
2019-01-25T23:14:50.303Z,70.70
2019-01-25T23:17:21.221Z,70.60
2019-01-25T23:19:50.462Z,70.10
2019-01-25T23:22:20.306Z,69.10
2019-01-25T23:24:50.289Z,68.60
2019-01-25T23:27:19.349Z,68.40
2019-01-25T23:29:49.313Z,67.90
2019-01-25T23:32:19.524Z,67.70
2019-01-25T23:34:49.128Z,67.60
2019-01-25T23:37:20.501Z,67.60
2019-01-25T23:39:50.453Z,67.30
2019-01-25T23:42:20.551Z,66.70
2019-01-25T23:44:51.396Z,66.10
2019-01-25T23:47:21.253Z,65.60
2019-01-25T23:49:54.022Z,65.50
2019-01-25T23:52:24.183Z,65.50
2019-01-25T23:54:54.717Z,65.70
2019-01-25T23:57:25.506Z,66.00
2019-01-25T23:59:54.932Z,65.80
